createdAt,value
2018-03-21T00:00:07.273Z,117.62
2018-03-21T00:02:36.389Z,117.97
2018-03-21T00:05:05.509Z,117.85
2018-03-21T00:07:34.637Z,115.43
2018-03-21T00:10:03.827Z,116.65
2018-03-21T00:12:32.930Z,116.68
2018-03-21T00:15:02.078Z,117.18
2018-03-21T00:17:31.190Z,117.28
2018-03-21T00:20:00.313Z,119.15
2018-03-21T00:22:29.408Z,115.88
2018-03-21T00:24:58.528Z,117.45
2018-03-21T00:27:27.670Z,116.68
2018-03-21T00:29:56.770Z,117.72
2018-03-21T00:32:25.890Z,115.60
2018-03-21T00:34:55.007Z,117.15
2018-03-21T00:37:24.172Z,116.70
2018-03-21T00:39:53.285Z,117.10
2018-03-21T00:42:22.423Z,115.35
2018-03-21T00:44:51.574Z,115.18
2018-03-21T00:47:20.706Z,115.45
2018-03-21T00:49:49.821Z,115.28
2018-03-21T00:52:18.990Z,116.75
2018-03-21T00:54:48.089Z,116.90
2018-03-21T00:57:17.214Z,116.10
2018-03-21T00:59:46.358Z,116.00
2018-03-21T01:02:15.506Z,116.82
2018-03-21T01:04:44.629Z,117.35
2018-03-21T01:07:13.775Z,116.80
2018-03-21T01:09:42.913Z,116.75
2018-03-21T01:12:12.082Z,117.05
2018-03-21T01:14:41.175Z,115.95
2018-03-21T01:17:10.295Z,118.18
2018-03-21T01:19:39.412Z,116.62
2018-03-21T01:22:08.503Z,118.45
2018-03-21T01:24:37.621Z,116.07
2018-03-21T01:27:06.736Z,117.05
2018-03-21T01:29:35.854Z,116.35
2018-03-21T01:32:05.003Z,117.05
2018-03-21T01:34:34.150Z,117.15
2018-03-21T01:37:03.333Z,116.25
2018-03-21T01:39:32.431Z,116.10
2018-03-21T01:42:01.694Z,115.32
2018-03-21T01:44:30.838Z,116.80
2018-03-21T01:46:59.976Z,117.35
2018-03-21T01:49:29.117Z,116.65
2018-03-21T01:51:58.209Z,115.97
2018-03-21T01:54:27.299Z,115.25
2018-03-21T01:56:56.418Z,115.47
2018-03-21T01:59:25.551Z,115.85
2018-03-21T02:01:54.742Z,113.03
2018-03-21T02:04:23.907Z,114.05
2018-03-21T02:06:53.039Z,115.32
2018-03-21T02:09:22.130Z,116.47
2018-03-21T02:11:51.282Z,115.40
2018-03-21T02:14:20.394Z,117.78
2018-03-21T02:16:49.562Z,116.37
2018-03-21T02:19:18.676Z,115.93
2018-03-21T02:21:47.810Z,115.75
2018-03-21T02:24:16.965Z,115.62
2018-03-21T02:26:46.094Z,115.12
2018-03-21T02:29:15.299Z,116.47
2018-03-21T02:31:44.395Z,113.90
2018-03-21T02:34:13.491Z,115.72
2018-03-21T02:36:42.626Z,114.60
2018-03-21T02:39:11.760Z,115.68
2018-03-21T02:41:40.885Z,115.43
2018-03-21T02:44:09.997Z,115.15
2018-03-21T02:46:39.131Z,115.60
2018-03-21T02:51:43.552Z,114.47
2018-03-21T02:54:12.653Z,114.80
2018-03-21T02:56:41.814Z,115.05
2018-03-21T02:59:10.968Z,115.80
2018-03-21T03:01:40.091Z,114.90
2018-03-21T03:04:09.194Z,116.82
2018-03-21T03:06:38.340Z,117.43
2018-03-21T03:09:07.462Z,116.90
2018-03-21T03:11:36.586Z,117.70
2018-03-21T03:14:05.719Z,117.18
2018-03-21T03:16:34.833Z,117.13
2018-03-21T03:19:03.969Z,113.85
2018-03-21T03:21:33.064Z,113.80
2018-03-21T03:24:02.186Z,115.03
2018-03-21T03:26:31.305Z,116.82
2018-03-21T03:29:00.425Z,114.70
2018-03-21T03:31:29.538Z,116.57
2018-03-21T03:33:58.661Z,117.03
2018-03-21T03:36:27.797Z,117.18
2018-03-21T03:38:56.966Z,117.45
2018-03-21T03:41:26.066Z,117.05
2018-03-21T03:43:55.210Z,116.15
2018-03-21T03:46:24.361Z,115.50
2018-03-21T03:48:53.469Z,116.78
2018-03-21T03:51:22.578Z,118.37
2018-03-21T03:53:57.629Z,116.37
2018-03-21T03:56:26.755Z,115.47
2018-03-21T03:58:55.861Z,116.78
2018-03-21T04:01:24.991Z,116.95
2018-03-21T04:03:54.115Z,118.00
2018-03-21T04:06:23.246Z,117.85
2018-03-21T04:08:52.454Z,115.10
2018-03-21T04:11:21.546Z,119.47
2018-03-21T04:13:50.646Z,117.40
2018-03-21T04:16:19.778Z,115.82
2018-03-21T04:18:48.898Z,117.37
2018-03-21T04:21:18.038Z,117.32
2018-03-21T04:23:47.158Z,115.72
2018-03-21T04:26:16.274Z,117.18
2018-03-21T04:28:45.448Z,116.88
2018-03-21T04:31:14.561Z,118.85
2018-03-21T04:33:43.666Z,116.35
2018-03-21T04:36:12.802Z,118.15
2018-03-21T04:38:41.946Z,118.30
2018-03-21T04:41:11.130Z,118.25
2018-03-21T04:43:40.225Z,116.62
2018-03-21T04:46:09.413Z,117.80
2018-03-21T04:48:38.629Z,118.10
2018-03-21T04:51:07.779Z,117.07
2018-03-21T04:53:37.006Z,117.53
2018-03-21T04:56:06.125Z,116.93
2018-03-21T04:58:35.315Z,116.25
2018-03-21T05:01:04.450Z,118.03
2018-03-21T05:03:33.557Z,116.75
2018-03-21T05:06:02.766Z,119.50
2018-03-21T05:08:31.966Z,119.68
2018-03-21T05:11:01.228Z,120.40
2018-03-21T05:13:30.327Z,120.30
2018-03-21T05:15:59.445Z,118.78
2018-03-21T05:18:28.549Z,118.05
2018-03-21T05:20:57.681Z,118.75
2018-03-21T05:23:26.809Z,116.57
2018-03-21T05:25:55.934Z,118.30
2018-03-21T05:28:25.026Z,120.80
2018-03-21T05:30:54.141Z,119.22
2018-03-21T05:33:23.274Z,120.22
2018-03-21T05:35:52.401Z,124.60
2018-03-21T05:38:21.528Z,122.50
2018-03-21T05:40:50.672Z,120.90
2018-03-21T05:43:19.799Z,119.93
2018-03-21T05:45:48.928Z,122.25
2018-03-21T05:48:24.619Z,124.70
2018-03-21T05:50:53.780Z,121.78
2018-03-21T05:53:22.889Z,119.57
2018-03-21T05:55:52.005Z,121.47
2018-03-21T05:58:21.122Z,122.45
2018-03-21T06:00:50.257Z,120.95
2018-03-21T06:03:19.350Z,120.57
2018-03-21T06:05:48.462Z,120.85
2018-03-21T06:08:17.645Z,122.15
2018-03-21T06:10:46.933Z,122.30
2018-03-21T06:13:36.795Z,122.70
2018-03-21T06:16:08.120Z,120.72
2018-03-21T06:18:37.246Z,120.82
2018-03-21T06:21:06.373Z,121.93
2018-03-21T06:23:35.474Z,120.35
2018-03-21T06:26:04.598Z,121.20
2018-03-21T06:28:33.695Z,121.35
2018-03-21T06:31:02.836Z,122.40
2018-03-21T06:33:32.188Z,123.15
2018-03-21T06:36:01.354Z,121.35
2018-03-21T06:38:30.458Z,123.57
2018-03-21T06:40:59.571Z,120.60
2018-03-21T06:43:28.721Z,122.75
2018-03-21T06:45:57.928Z,123.55
2018-03-21T06:48:27.135Z,123.50
2018-03-21T06:50:56.221Z,125.30
2018-03-21T06:53:25.387Z,129.17
2018-03-21T06:55:54.552Z,131.87
2018-03-21T06:58:23.713Z,130.50
2018-03-21T07:00:52.823Z,130.17
2018-03-21T07:03:21.921Z,131.97
2018-03-21T07:05:51.046Z,130.37
2018-03-21T07:08:20.194Z,131.93
2018-03-21T07:10:49.294Z,136.40
2018-03-21T07:13:18.419Z,135.90
2018-03-21T07:15:53.353Z,133.20
2018-03-21T07:18:22.459Z,138.40
2018-03-21T07:20:51.588Z,136.73
2018-03-21T07:23:20.709Z,135.70
2018-03-21T07:25:49.838Z,130.63
2018-03-21T07:28:18.982Z,131.70
2018-03-21T07:30:48.197Z,131.20
2018-03-21T07:33:17.338Z,131.83
2018-03-21T07:35:46.439Z,135.37
2018-03-21T07:38:15.556Z,133.80
2018-03-21T07:40:44.674Z,134.37
2018-03-21T07:43:13.801Z,132.10
2018-03-21T07:45:42.921Z,135.13
2018-03-21T07:48:12.037Z,137.03
2018-03-21T07:50:41.190Z,135.57
2018-03-21T07:53:10.386Z,134.93
2018-03-21T07:55:39.594Z,138.97
2018-03-21T07:58:08.735Z,135.93
2018-03-21T08:00:37.836Z,137.90
2018-03-21T08:03:06.970Z,137.03
2018-03-21T08:05:36.116Z,137.30
2018-03-21T08:08:05.263Z,139.77
2018-03-21T08:10:34.402Z,138.33
2018-03-21T08:13:03.535Z,138.13
2018-03-21T08:15:33.592Z,138.77
2018-03-21T08:18:02.709Z,150.90
2018-03-21T08:20:31.823Z,142.47
2018-03-21T08:23:00.935Z,151.30
2018-03-21T08:25:30.027Z,157.37
2018-03-21T08:27:59.164Z,145.87
2018-03-21T08:30:28.317Z,147.07
2018-03-21T08:32:57.434Z,146.27
2018-03-21T08:35:26.582Z,150.37
2018-03-21T08:37:55.681Z,150.23
2018-03-21T08:40:24.789Z,152.83
2018-03-21T08:42:53.902Z,148.97
2018-03-21T08:45:23.015Z,148.07
2018-03-21T08:47:52.211Z,144.73
2018-03-21T08:50:21.337Z,146.30
2018-03-21T08:52:50.459Z,144.17
2018-03-21T08:55:19.567Z,150.57
2018-03-21T08:57:48.734Z,148.57
2018-03-21T09:00:17.817Z,149.50
2018-03-21T09:02:46.918Z,144.17
2018-03-21T09:05:16.047Z,136.77
2018-03-21T09:07:45.253Z,133.77
2018-03-21T09:10:14.342Z,141.67
2018-03-21T09:12:43.515Z,143.20
2018-03-21T09:15:12.630Z,145.40
2018-03-21T09:17:41.734Z,144.97
2018-03-21T09:20:10.835Z,144.67
2018-03-21T09:22:39.947Z,142.53
2018-03-21T09:25:09.053Z,137.00
2018-03-21T09:27:38.204Z,122.20
2018-03-21T09:30:07.346Z,118.47
2018-03-21T09:32:36.466Z,119.47
2018-03-21T09:35:05.570Z,113.87
2018-03-21T09:37:34.721Z,120.23
2018-03-21T09:40:03.849Z,130.00
2018-03-21T09:42:32.960Z,140.73
2018-03-21T09:45:02.194Z,139.93
2018-03-21T09:47:31.398Z,146.83
2018-03-21T09:50:00.552Z,143.67
2018-03-21T09:52:29.638Z,144.37
2018-03-21T09:54:58.718Z,153.93
2018-03-21T09:57:27.894Z,166.03
2018-03-21T09:59:57.020Z,164.37
2018-03-21T10:02:26.164Z,155.67
2018-03-21T10:04:55.301Z,161.30
2018-03-21T10:07:24.449Z,165.97
2018-03-21T10:09:53.537Z,162.40
2018-03-21T10:12:22.678Z,149.13
2018-03-21T10:14:51.793Z,139.93
2018-03-21T10:17:20.913Z,139.00
2018-03-21T10:19:50.110Z,140.20
2018-03-21T10:22:19.225Z,142.20
2018-03-21T10:24:48.345Z,136.70
2018-03-21T10:27:17.465Z,137.27
2018-03-21T10:29:46.558Z,134.17
2018-03-21T10:32:15.657Z,137.03
2018-03-21T10:34:44.775Z,133.90
2018-03-21T10:37:13.871Z,134.70
2018-03-21T10:39:42.990Z,134.13
2018-03-21T10:42:12.190Z,137.63
2018-03-21T10:44:41.329Z,137.60
2018-03-21T10:47:10.510Z,140.50
2018-03-21T10:49:39.633Z,135.27
2018-03-21T10:52:08.777Z,137.77
2018-03-21T10:54:37.920Z,139.87
2018-03-21T10:57:07.050Z,138.93
2018-03-21T10:59:36.224Z,141.50
2018-03-21T11:02:11.151Z,142.13
2018-03-21T11:04:40.238Z,138.33
2018-03-21T11:07:09.354Z,140.80
2018-03-21T11:09:38.467Z,139.90
2018-03-21T11:12:07.581Z,140.67
2018-03-21T11:14:36.736Z,138.93
2018-03-21T11:17:05.850Z,139.97
2018-03-21T11:19:34.964Z,154.97
2018-03-21T11:22:04.178Z,156.90
2018-03-21T11:24:33.283Z,148.97
2018-03-21T11:27:03.388Z,148.03
2018-03-21T11:29:32.609Z,153.27
2018-03-21T11:32:01.791Z,160.57
2018-03-21T11:34:30.885Z,154.73
2018-03-21T11:37:00.014Z,150.87
2018-03-21T11:39:29.105Z,153.63
2018-03-21T11:41:58.197Z,161.13
2018-03-21T11:44:27.364Z,156.43
2018-03-21T11:46:56.484Z,140.23
2018-03-21T11:49:25.630Z,140.03
2018-03-21T11:51:54.742Z,139.90
2018-03-21T11:54:23.866Z,138.17
2018-03-21T11:56:52.989Z,132.17
2018-03-21T11:59:22.102Z,135.27
2018-03-21T12:01:51.233Z,131.47
2018-03-21T12:04:20.349Z,133.13
2018-03-21T12:06:49.623Z,131.93
2018-03-21T12:09:18.738Z,133.63
2018-03-21T12:11:47.880Z,132.23
2018-03-21T12:14:17.003Z,133.57
2018-03-21T12:16:46.134Z,133.60
2018-03-21T12:19:15.342Z,135.37
2018-03-21T12:21:44.461Z,134.73
2018-03-21T12:24:13.573Z,133.57
2018-03-21T12:26:42.790Z,134.60
2018-03-21T12:29:11.986Z,134.43
2018-03-21T12:31:41.106Z,132.30
2018-03-21T12:34:10.247Z,130.57
2018-03-21T12:36:39.372Z,127.27
2018-03-21T12:39:08.569Z,124.17
2018-03-21T12:41:37.723Z,126.32
2018-03-21T12:44:06.898Z,123.95
2018-03-21T12:46:36.091Z,125.45
2018-03-21T12:49:05.235Z,125.75
2018-03-21T12:51:34.356Z,123.47
2018-03-21T12:54:03.491Z,124.12
2018-03-21T12:56:32.598Z,123.68
2018-03-21T12:59:01.815Z,124.47
2018-03-21T13:01:30.972Z,124.30
2018-03-21T13:04:00.091Z,123.13
2018-03-21T13:06:29.190Z,123.07
2018-03-21T13:08:58.393Z,120.53
2018-03-21T13:11:27.523Z,120.53
2018-03-21T13:13:56.621Z,120.62
2018-03-21T13:16:25.716Z,123.38
2018-03-21T13:18:54.826Z,124.15
2018-03-21T13:21:24.038Z,122.85
2018-03-21T13:23:53.155Z,121.07
2018-03-21T13:26:22.273Z,122.05
2018-03-21T13:28:51.431Z,119.37
2018-03-21T13:31:20.567Z,121.35
2018-03-21T13:33:49.653Z,118.05
2018-03-21T13:36:18.772Z,121.32
2018-03-21T13:38:47.933Z,121.60
2018-03-21T13:41:17.033Z,124.72
2018-03-21T13:43:46.156Z,121.43
2018-03-21T13:46:15.379Z,121.03
2018-03-21T13:48:44.504Z,121.50
2018-03-21T13:51:13.675Z,122.62
2018-03-21T13:53:42.886Z,121.97
2018-03-21T13:56:12.011Z,121.95
2018-03-21T13:58:41.107Z,122.10
2018-03-21T14:01:10.250Z,121.20
2018-03-21T14:03:39.383Z,121.72
2018-03-21T14:06:08.498Z,122.05
2018-03-21T14:08:37.626Z,121.03
2018-03-21T14:11:06.742Z,122.22
2018-03-21T14:13:35.845Z,122.68
2018-03-21T14:16:04.980Z,121.20
2018-03-21T14:18:34.096Z,123.47
2018-03-21T14:21:03.195Z,119.87
2018-03-21T14:23:32.325Z,119.28
2018-03-21T14:26:01.466Z,120.97
2018-03-21T14:28:30.634Z,120.95
2018-03-21T14:30:59.751Z,120.65
2018-03-21T14:33:28.881Z,121.25
2018-03-21T14:35:58.029Z,119.87
2018-03-21T14:38:27.135Z,121.03
2018-03-21T14:40:56.295Z,120.30
2018-03-21T14:43:25.578Z,121.20
2018-03-21T14:45:54.696Z,120.87
2018-03-21T14:48:23.960Z,123.72
2018-03-21T14:50:53.157Z,122.30
2018-03-21T14:53:22.306Z,121.70
2018-03-21T14:55:51.477Z,122.00
2018-03-21T14:58:20.646Z,122.28
2018-03-21T15:00:49.741Z,120.18
2018-03-21T15:03:18.846Z,123.38
2018-03-21T15:05:47.978Z,121.07
2018-03-21T15:08:17.130Z,121.80
2018-03-21T15:10:46.222Z,121.55
2018-03-21T15:13:15.338Z,122.47
2018-03-21T15:15:44.466Z,119.72
2018-03-21T15:18:13.604Z,122.53
2018-03-21T15:20:42.708Z,120.37
2018-03-21T15:23:11.829Z,122.07
2018-03-21T15:25:40.961Z,119.43
2018-03-21T15:28:10.054Z,119.70
2018-03-21T15:30:39.202Z,118.60
2018-03-21T15:33:08.332Z,119.00
2018-03-21T15:35:37.478Z,119.43
2018-03-21T15:38:06.604Z,119.20
2018-03-21T15:40:35.747Z,118.87
2018-03-21T15:43:04.933Z,119.57
2018-03-21T15:45:34.058Z,120.37
2018-03-21T15:48:03.188Z,116.50
2018-03-21T15:50:32.450Z,120.43
2018-03-21T15:53:01.550Z,119.20
2018-03-21T15:55:30.698Z,119.80
2018-03-21T15:57:59.897Z,120.87
2018-03-21T16:00:29.022Z,121.45
2018-03-21T16:02:58.172Z,120.15
2018-03-21T16:05:27.295Z,120.93
2018-03-21T16:07:56.393Z,120.75
2018-03-21T16:10:25.518Z,120.82
2018-03-21T16:12:54.633Z,119.30
2018-03-21T16:15:23.777Z,120.43
2018-03-21T16:17:52.911Z,121.80
2018-03-21T16:20:22.012Z,121.97
2018-03-21T16:22:51.134Z,120.70
2018-03-21T16:25:20.246Z,120.97
2018-03-21T16:27:50.407Z,120.25
2018-03-21T16:30:19.525Z,120.30
2018-03-21T16:32:48.702Z,122.28
2018-03-21T16:35:17.817Z,122.28
2018-03-21T16:37:46.918Z,121.97
2018-03-21T16:40:16.064Z,121.60
2018-03-21T16:42:45.183Z,119.93
2018-03-21T16:45:14.289Z,120.68
2018-03-21T16:47:43.485Z,118.40
2018-03-21T16:50:12.610Z,123.20
2018-03-21T16:52:41.745Z,121.22
2018-03-21T16:55:10.859Z,121.25
2018-03-21T16:57:39.962Z,120.10
2018-03-21T17:00:09.118Z,122.57
2018-03-21T17:02:38.240Z,121.43
2018-03-21T17:05:07.393Z,120.20
2018-03-21T17:07:36.491Z,119.30
2018-03-21T17:10:05.594Z,120.15
2018-03-21T17:12:34.746Z,120.50
2018-03-21T17:15:03.916Z,119.45
2018-03-21T17:17:33.400Z,120.47
2018-03-21T17:20:02.500Z,120.45
2018-03-21T17:22:31.616Z,120.53
2018-03-21T17:25:00.765Z,123.30
2018-03-21T17:27:29.863Z,121.97
2018-03-21T17:29:58.981Z,121.68
2018-03-21T17:32:28.107Z,121.82
2018-03-21T17:34:57.203Z,121.43
2018-03-21T17:37:26.311Z,125.12
2018-03-21T17:39:55.449Z,123.35
2018-03-21T17:42:24.553Z,123.15
2018-03-21T17:44:53.674Z,122.93
2018-03-21T17:47:22.863Z,122.37
2018-03-21T17:49:51.953Z,121.40
2018-03-21T17:52:21.078Z,122.10
2018-03-21T17:54:50.206Z,120.70
2018-03-21T17:57:19.352Z,121.65
2018-03-21T17:59:48.478Z,120.97
2018-03-21T18:02:17.626Z,121.55
2018-03-21T18:04:46.719Z,120.28
2018-03-21T18:07:15.835Z,118.47
2018-03-21T18:09:44.958Z,131.63
2018-03-21T18:12:14.229Z,124.05
2018-03-21T18:14:43.331Z,121.93
2018-03-21T18:17:13.241Z,121.28
2018-03-21T18:19:42.368Z,121.03
2018-03-21T18:22:11.489Z,121.00
2018-03-21T18:24:40.577Z,119.03
2018-03-21T18:27:09.775Z,120.95
2018-03-21T18:29:38.917Z,121.15
2018-03-21T18:32:08.051Z,121.00
2018-03-21T18:34:37.208Z,121.45
2018-03-21T18:37:06.306Z,119.32
2018-03-21T18:39:35.403Z,121.37
2018-03-21T18:42:04.563Z,120.57
2018-03-21T18:44:33.713Z,121.22
2018-03-21T18:47:02.888Z,122.68
2018-03-21T18:49:32.074Z,120.05
2018-03-21T18:52:01.206Z,119.70
2018-03-21T18:54:30.382Z,119.37
2018-03-21T18:56:59.555Z,119.65
2018-03-21T18:59:28.745Z,121.87
2018-03-21T19:01:57.862Z,121.85
2018-03-21T19:04:27.010Z,120.90
2018-03-21T19:06:56.186Z,119.30
2018-03-21T19:09:25.285Z,119.65
2018-03-21T19:11:54.397Z,119.95
2018-03-21T19:14:23.509Z,120.97
2018-03-21T19:16:52.610Z,119.53
2018-03-21T19:19:21.738Z,118.30
2018-03-21T19:21:50.856Z,118.07
2018-03-21T19:24:19.958Z,121.28
2018-03-21T19:26:49.090Z,120.90
2018-03-21T19:29:18.237Z,120.40
2018-03-21T19:31:47.400Z,120.07
2018-03-21T19:34:16.504Z,121.45
2018-03-21T19:36:45.611Z,121.28
2018-03-21T19:39:14.745Z,122.35
2018-03-21T19:41:43.857Z,119.82
2018-03-21T19:44:12.988Z,120.45
2018-03-21T19:46:42.110Z,121.55
2018-03-21T19:49:11.233Z,118.62
2018-03-21T19:51:40.407Z,120.00
2018-03-21T19:54:09.584Z,120.07
2018-03-21T19:56:38.707Z,119.72
2018-03-21T19:59:07.902Z,119.43
2018-03-21T20:01:37.066Z,119.65
2018-03-21T20:04:06.264Z,117.87
2018-03-21T20:06:35.357Z,120.72
2018-03-21T20:09:04.534Z,119.18
2018-03-21T20:11:33.670Z,120.47
2018-03-21T20:14:02.804Z,120.65
2018-03-21T20:16:31.919Z,120.85
2018-03-21T20:19:01.022Z,120.18
2018-03-21T20:21:30.119Z,122.20
2018-03-21T20:23:59.309Z,119.80
2018-03-21T20:26:28.417Z,118.93
2018-03-21T20:28:57.509Z,120.80
2018-03-21T20:31:26.617Z,118.82
2018-03-21T20:33:55.732Z,120.05
2018-03-21T20:36:24.841Z,121.90
2018-03-21T20:38:53.969Z,121.22
2018-03-21T20:41:23.093Z,120.03
2018-03-21T20:43:52.408Z,118.62
2018-03-21T20:46:25.316Z,121.37
2018-03-21T20:48:54.785Z,119.97
2018-03-21T20:51:23.922Z,120.47
2018-03-21T20:53:53.009Z,120.87
2018-03-21T20:56:22.169Z,121.43
2018-03-21T20:58:51.354Z,120.80
2018-03-21T21:01:20.510Z,122.37
2018-03-21T21:03:49.625Z,120.75
2018-03-21T21:06:18.746Z,122.07
2018-03-21T21:08:47.842Z,129.80
2018-03-21T22:53:14.227Z,38.63
2018-03-21T22:55:42.161Z,38.30
2018-03-21T22:58:09.986Z,41.13
2018-03-21T23:00:37.800Z,42.07
2018-03-21T23:03:05.759Z,42.90
2018-03-21T23:05:33.679Z,42.30
2018-03-21T23:08:01.705Z,44.90
2018-03-21T23:10:29.665Z,44.00
2018-03-21T23:12:57.638Z,44.83
2018-03-21T23:15:25.511Z,45.72
2018-03-21T23:17:53.434Z,45.10
2018-03-21T23:20:22.151Z,30.67
2018-03-21T23:22:50.276Z,31.40
2018-03-21T23:25:18.160Z,30.90
2018-03-21T23:27:46.989Z,30.90
2018-03-21T23:30:14.853Z,31.33
2018-03-21T23:32:42.716Z,30.77
2018-03-21T23:35:10.612Z,29.43
2018-03-21T23:37:38.491Z,29.73
2018-03-21T23:40:06.465Z,29.63
2018-03-21T23:42:34.390Z,29.47
2018-03-21T23:45:02.350Z,30.50
2018-03-21T23:47:30.329Z,30.37
2018-03-21T23:49:58.411Z,29.33
2018-03-21T23:52:26.369Z,29.03
2018-03-21T23:54:54.441Z,27.73
2018-03-21T23:57:22.593Z,29.43
2018-03-21T23:59:50.546Z,28.93
